sensor_id;sensor_type;location;lat;lon;timestamp;P1;durP1;ratioP1;P2;durP2;ratioP2
23684;SDS011;12020;51.384;6.908;2023-05-07T02:46:18;4.63;;;3.63;;
23684;SDS011;12020;51.384;6.908;2023-05-07T02:48:45;4.20;;;3.47;;
23684;SDS011;12020;51.384;6.908;2023-05-07T02:51:12;4.40;;;4.00;;
23684;SDS011;12020;51.384;6.908;2023-05-07T02:53:42;4.27;;;3.87;;
23684;SDS011;12020;51.384;6.908;2023-05-07T02:56:09;4.40;;;4.00;;
23684;SDS011;12020;51.384;6.908;2023-05-07T02:58:39;5.73;;;3.97;;
23684;SDS011;12020;51.384;6.908;2023-05-07T03:01:08;4.00;;;3.50;;
23684;SDS011;12020;51.384;6.908;2023-05-07T03:06:11;5.63;;;4.33;;
23684;SDS011;12020;51.384;6.908;2023-05-07T03:08:37;5.47;;;4.60;;
23684;SDS011;12020;51.384;6.908;2023-05-07T03:11:03;4.83;;;4.43;;
23684;SDS011;12020;51.384;6.908;2023-05-07T03:16:00;6.80;;;4.43;;
23684;SDS011;12020;51.384;6.908;2023-05-07T03:18:27;5.67;;;5.13;;
23684;SDS011;12020;51.384;6.908;2023-05-07T03:20:54;4.47;;;4.00;;
23684;SDS011;12020;51.384;6.908;2023-05-07T03:23:20;4.70;;;4.30;;
23684;SDS011;12020;51.384;6.908;2023-05-07T03:25:46;5.93;;;4.07;;
23684;SDS011;12020;51.384;6.908;2023-05-07T03:28:11;5.27;;;3.80;;
23684;SDS011;12020;51.384;6.908;2023-05-07T03:30:38;4.13;;;3.73;;
23684;SDS011;12020;51.384;6.908;2023-05-07T03:33:05;5.67;;;4.53;;
23684;SDS011;12020;51.384;6.908;2023-05-07T03:35:33;4.43;;;4.03;;
23684;SDS011;12020;51.384;6.908;2023-05-07T03:38:00;5.57;;;4.50;;
23684;SDS011;12020;51.384;6.908;2023-05-07T03:40:28;5.20;;;4.70;;
23684;SDS011;12020;51.384;6.908;2023-05-07T03:42:54;6.03;;;4.83;;
23684;SDS011;12020;51.384;6.908;2023-05-07T03:45:24;4.93;;;3.90;;
23684;SDS011;12020;51.384;6.908;2023-05-07T03:47:49;5.53;;;4.27;;
23684;SDS011;12020;51.384;6.908;2023-05-07T03:50:19;4.43;;;4.03;;
23684;SDS011;12020;51.384;6.908;2023-05-07T03:52:45;4.33;;;3.83;;
23684;SDS011;12020;51.384;6.908;2023-05-07T03:57:42;4.37;;;3.97;;
23684;SDS011;12020;51.384;6.908;2023-05-07T04:00:11;5.27;;;4.80;;
23684;SDS011;12020;51.384;6.908;2023-05-07T04:02:39;6.30;;;4.93;;
23684;SDS011;12020;51.384;6.908;2023-05-07T04:05:05;4.83;;;4.37;;
23684;SDS011;12020;51.384;6.908;2023-05-07T04:07:32;5.90;;;4.27;;
23684;SDS011;12020;51.384;6.908;2023-05-07T04:10:00;5.20;;;4.70;;
23684;SDS011;12020;51.384;6.908;2023-05-07T04:12:27;6.00;;;5.10;;
23684;SDS011;12020;51.384;6.908;2023-05-07T04:14:55;5.00;;;4.37;;
23684;SDS011;12020;51.384;6.908;2023-05-07T04:22:17;4.97;;;4.47;;
23684;SDS011;12020;51.384;6.908;2023-05-07T04:24:44;5.10;;;4.70;;
23684;SDS011;12020;51.384;6.908;2023-05-07T04:29:44;5.37;;;4.63;;
23684;SDS011;12020;51.384;6.908;2023-05-07T04:32:12;5.00;;;4.50;;
23684;SDS011;12020;51.384;6.908;2023-05-07T04:34:39;5.33;;;4.40;;
23684;SDS011;12020;51.384;6.908;2023-05-07T04:37:06;4.83;;;4.27;;
23684;SDS011;12020;51.384;6.908;2023-05-07T04:39:36;6.37;;;4.53;;
23684;SDS011;12020;51.384;6.908;2023-05-07T04:42:02;4.17;;;3.87;;
23684;SDS011;12020;51.384;6.908;2023-05-07T04:44:29;5.23;;;4.40;;
23684;SDS011;12020;51.384;6.908;2023-05-07T04:46:56;5.20;;;4.67;;
23684;SDS011;12020;51.384;6.908;2023-05-07T04:49:23;4.63;;;4.23;;
23684;SDS011;12020;51.384;6.908;2023-05-07T04:51:50;4.63;;;4.10;;
23684;SDS011;12020;51.384;6.908;2023-05-07T04:54:17;4.93;;;4.43;;
23684;SDS011;12020;51.384;6.908;2023-05-07T04:56:42;5.27;;;4.77;;
23684;SDS011;12020;51.384;6.908;2023-05-07T04:59:08;4.63;;;4.20;;
23684;SDS011;12020;51.384;6.908;2023-05-07T05:01:35;7.27;;;4.70;;
23684;SDS011;12020;51.384;6.908;2023-05-07T05:04:02;4.70;;;4.30;;
23684;SDS011;12020;51.384;6.908;2023-05-07T05:06:29;5.10;;;4.60;;
23684;SDS011;12020;51.384;6.908;2023-05-07T05:08:55;5.50;;;4.20;;
23684;SDS011;12020;51.384;6.908;2023-05-07T05:11:22;4.70;;;4.30;;
23684;SDS011;12020;51.384;6.908;2023-05-07T05:13:49;6.10;;;4.70;;
23684;SDS011;12020;51.384;6.908;2023-05-07T05:16:16;5.10;;;4.23;;
23684;SDS011;12020;51.384;6.908;2023-05-07T05:18:43;4.93;;;4.30;;
23684;SDS011;12020;51.384;6.908;2023-05-07T05:21:10;5.47;;;4.80;;
23684;SDS011;12020;51.384;6.908;2023-05-07T05:23:38;6.87;;;4.50;;
23684;SDS011;12020;51.384;6.908;2023-05-07T05:26:05;4.70;;;4.30;;
23684;SDS011;12020;51.384;6.908;2023-05-07T05:28:32;5.57;;;5.07;;
23684;SDS011;12020;51.384;6.908;2023-05-07T05:30:57;5.50;;;4.47;;
23684;SDS011;12020;51.384;6.908;2023-05-07T05:33:23;6.57;;;4.60;;
23684;SDS011;12020;51.384;6.908;2023-05-07T05:35:49;4.67;;;4.27;;
23684;SDS011;12020;51.384;6.908;2023-05-07T05:38:16;5.27;;;4.77;;
23684;SDS011;12020;51.384;6.908;2023-05-07T05:40:46;5.43;;;4.93;;
23684;SDS011;12020;51.384;6.908;2023-05-07T05:45:44;6.40;;;5.07;;
23684;SDS011;12020;51.384;6.908;2023-05-07T05:48:11;7.67;;;5.17;;
23684;SDS011;12020;51.384;6.908;2023-05-07T05:50:37;5.13;;;4.63;;
23684;SDS011;12020;51.384;6.908;2023-05-07T05:53:05;5.70;;;5.20;;
23684;SDS011;12020;51.384;6.908;2023-05-07T05:55:32;5.53;;;5.03;;
23684;SDS011;12020;51.384;6.908;2023-05-07T05:58:15;5.50;;;4.77;;
23684;SDS011;12020;51.384;6.908;2023-05-07T06:00:48;5.23;;;4.83;;
23684;SDS011;12020;51.384;6.908;2023-05-07T06:09:18;5.57;;;4.87;;
23684;SDS011;12020;51.384;6.908;2023-05-07T06:11:45;5.20;;;4.80;;
23684;SDS011;12020;51.384;6.908;2023-05-07T06:14:11;5.67;;;5.07;;
23684;SDS011;12020;51.384;6.908;2023-05-07T06:16:37;6.30;;;5.43;;
23684;SDS011;12020;51.384;6.908;2023-05-07T06:24:14;6.17;;;5.57;;
23684;SDS011;12020;51.384;6.908;2023-05-07T06:26:40;5.93;;;5.43;;
23684;SDS011;12020;51.384;6.908;2023-05-07T06:29:06;7.10;;;5.10;;
23684;SDS011;12020;51.384;6.908;2023-05-07T06:31:34;5.30;;;4.83;;
23684;SDS011;12020;51.384;6.908;2023-05-07T06:34:01;6.27;;;5.47;;
23684;SDS011;12020;51.384;6.908;2023-05-07T06:36:28;6.20;;;5.50;;
23684;SDS011;12020;51.384;6.908;2023-05-07T06:38:55;5.73;;;5.23;;
23684;SDS011;12020;51.384;6.908;2023-05-07T06:41:28;7.97;;;5.63;;
23684;SDS011;12020;51.384;6.908;2023-05-07T06:43:55;5.83;;;5.30;;
23684;SDS011;12020;51.384;6.908;2023-05-07T06:46:25;6.20;;;5.23;;
23684;SDS011;12020;51.384;6.908;2023-05-07T06:49:00;5.80;;;5.27;;
23684;SDS011;12020;51.384;6.908;2023-05-07T06:51:25;5.90;;;5.30;;
23684;SDS011;12020;51.384;6.908;2023-05-07T06:53:53;5.67;;;5.17;;
23684;SDS011;12020;51.384;6.908;2023-05-07T06:56:19;5.13;;;4.73;;
23684;SDS011;12020;51.384;6.908;2023-05-07T06:58:46;7.47;;;5.53;;
23684;SDS011;12020;51.384;6.908;2023-05-07T07:01:13;6.13;;;4.40;;
23684;SDS011;12020;51.384;6.908;2023-05-07T07:03:42;5.82;;;5.30;;
23684;SDS011;12020;51.384;6.908;2023-05-07T07:06:08;5.70;;;4.70;;
23684;SDS011;12020;51.384;6.908;2023-05-07T07:08:35;4.90;;;4.40;;
23684;SDS011;12020;51.384;6.908;2023-05-07T07:11:05;5.90;;;4.60;;
23684;SDS011;12020;51.384;6.908;2023-05-07T07:13:31;5.50;;;4.80;;
23684;SDS011;12020;51.384;6.908;2023-05-07T07:16:00;5.78;;;5.07;;
23684;SDS011;12020;51.384;6.908;2023-05-07T07:18:26;5.50;;;5.00;;
23684;SDS011;12020;51.384;6.908;2023-05-07T07:20:52;4.90;;;3.60;;
23684;SDS011;12020;51.384;6.908;2023-05-07T07:23:18;3.57;;;3.27;;
23684;SDS011;12020;51.384;6.908;2023-05-07T07:25:45;4.32;;;3.30;;
23684;SDS011;12020;51.384;6.908;2023-05-07T07:28:13;3.92;;;3.35;;
23684;SDS011;12020;51.384;6.908;2023-05-07T07:30:42;5.35;;;3.22;;
23684;SDS011;12020;51.384;6.908;2023-05-07T07:33:09;3.97;;;3.43;;
23684;SDS011;12020;51.384;6.908;2023-05-07T07:35:36;3.92;;;3.30;;
23684;SDS011;12020;51.384;6.908;2023-05-07T07:38:02;3.78;;;3.33;;
23684;SDS011;12020;51.384;6.908;2023-05-07T07:40:34;5.85;;;2.97;;
23684;SDS011;12020;51.384;6.908;2023-05-07T07:43:00;4.22;;;3.45;;
23684;SDS011;12020;51.384;6.908;2023-05-07T07:45:26;4.20;;;3.10;;
23684;SDS011;12020;51.384;6.908;2023-05-07T07:47:55;3.27;;;2.97;;
23684;SDS011;12020;51.384;6.908;2023-05-07T08:31:13;3.23;;;2.20;;
23684;SDS011;12020;51.384;6.908;2023-05-07T08:33:48;3.77;;;1.93;;
23684;SDS011;12020;51.384;6.908;2023-05-07T08:36:18;4.30;;;2.53;;
23684;SDS011;12020;51.384;6.908;2023-05-07T08:38:45;3.20;;;2.17;;
23684;SDS011;12020;51.384;6.908;2023-05-07T08:41:15;3.77;;;2.33;;
23684;SDS011;12020;51.384;6.908;2023-05-07T08:43:49;2.50;;;2.15;;
23684;SDS011;12020;51.384;6.908;2023-05-07T08:46:23;3.17;;;2.10;;
23684;SDS011;12020;51.384;6.908;2023-05-07T08:48:58;2.97;;;2.03;;
23684;SDS011;12020;51.384;6.908;2023-05-07T08:51:27;2.50;;;1.97;;
23684;SDS011;12020;51.384;6.908;2023-05-07T08:54:01;2.80;;;2.10;;
23684;SDS011;12020;51.384;6.908;2023-05-07T08:56:26;3.58;;;1.90;;
23684;SDS011;12020;51.384;6.908;2023-05-07T08:58:53;3.43;;;2.33;;
23684;SDS011;12020;51.384;6.908;2023-05-07T09:01:23;2.10;;;1.85;;
23684;SDS011;12020;51.384;6.908;2023-05-07T09:03:49;2.60;;;2.00;;
23684;SDS011;12020;51.384;6.908;2023-05-07T09:06:16;4.05;;;2.00;;
23684;SDS011;12020;51.384;6.908;2023-05-07T09:08:44;2.97;;;1.90;;
23684;SDS011;12020;51.384;6.908;2023-05-07T09:11:33;2.83;;;1.95;;
23684;SDS011;12020;51.384;6.908;2023-05-07T09:14:00;2.42;;;1.92;;
23684;SDS011;12020;51.384;6.908;2023-05-07T09:16:29;2.50;;;1.73;;
23684;SDS011;12020;51.384;6.908;2023-05-07T09:18:57;2.75;;;2.05;;
23684;SDS011;12020;51.384;6.908;2023-05-07T09:21:23;2.53;;;1.90;;
23684;SDS011;12020;51.384;6.908;2023-05-07T09:23:53;2.63;;;1.70;;
23684;SDS011;12020;51.384;6.908;2023-05-07T09:28:51;3.13;;;1.95;;
23684;SDS011;12020;51.384;6.908;2023-05-07T09:31:18;2.40;;;1.60;;
23684;SDS011;12020;51.384;6.908;2023-05-07T09:33:44;3.55;;;1.75;;
23684;SDS011;12020;51.384;6.908;2023-05-07T09:36:10;2.70;;;1.70;;
23684;SDS011;12020;51.384;6.908;2023-05-07T09:38:36;2.90;;;1.67;;
23684;SDS011;12020;51.384;6.908;2023-05-07T09:41:04;2.60;;;1.80;;
23684;SDS011;12020;51.384;6.908;2023-05-07T09:43:35;1.83;;;1.48;;
23684;SDS011;12020;51.384;6.908;2023-05-07T09:46:03;1.77;;;1.38;;
23684;SDS011;12020;51.384;6.908;2023-05-07T09:48:37;1.30;;;1.10;;
23684;SDS011;12020;51.384;6.908;2023-05-07T09:51:28;1.20;;;1.10;;
23684;SDS011;12020;51.384;6.908;2023-05-07T09:53:59;3.00;;;0.90;;
23684;SDS011;12020;51.384;6.908;2023-05-07T09:56:36;2.47;;;1.10;;
23684;SDS011;12020;51.384;6.908;2023-05-07T10:01:39;2.20;;;1.17;;
23684;SDS011;12020;51.384;6.908;2023-05-07T10:04:08;1.47;;;1.20;;
23684;SDS011;12020;51.384;6.908;2023-05-07T10:06:37;1.97;;;1.00;;
23684;SDS011;12020;51.384;6.908;2023-05-07T10:09:13;1.67;;;1.40;;
23684;SDS011;12020;51.384;6.908;2023-05-07T10:11:50;1.67;;;1.20;;
23684;SDS011;12020;51.384;6.908;2023-05-07T10:14:17;1.97;;;1.40;;
23684;SDS011;12020;51.384;6.908;2023-05-07T10:16:49;1.53;;;1.13;;
23684;SDS011;12020;51.384;6.908;2023-05-07T10:19:23;1.70;;;1.40;;
23684;SDS011;12020;51.384;6.908;2023-05-07T10:22:03;1.50;;;1.40;;
23684;SDS011;12020;51.384;6.908;2023-05-07T10:24:36;3.97;;;1.50;;
23684;SDS011;12020;51.384;6.908;2023-05-07T10:27:18;1.73;;;1.40;;
23684;SDS011;12020;51.384;6.908;2023-05-07T10:40:37;1.70;;;1.10;;
23684;SDS011;12020;51.384;6.908;2023-05-07T10:45:39;2.40;;;1.23;;
23684;SDS011;12020;51.384;6.908;2023-05-07T10:50:40;1.83;;;1.30;;
23684;SDS011;12020;51.384;6.908;2023-05-07T10:58:50;1.70;;;1.40;;
23684;SDS011;12020;51.384;6.908;2023-05-07T11:01:16;1.40;;;1.30;;
23684;SDS011;12020;51.384;6.908;2023-05-07T11:04:31;2.13;;;1.30;;
23684;SDS011;12020;51.384;6.908;2023-05-07T11:15:12;1.63;;;1.20;;
23684;SDS011;12020;51.384;6.908;2023-05-07T11:28:42;4.23;;;1.90;;
23684;SDS011;12020;51.384;6.908;2023-05-07T11:31:24;2.63;;;1.73;;
23684;SDS011;12020;51.384;6.908;2023-05-07T11:33:54;3.83;;;1.47;;
23684;SDS011;12020;51.384;6.908;2023-05-07T11:36:30;2.07;;;1.30;;
23684;SDS011;12020;51.384;6.908;2023-05-07T11:38:59;3.00;;;1.80;;
23684;SDS011;12020;51.384;6.908;2023-05-07T11:41:41;2.63;;;2.00;;
23684;SDS011;12020;51.384;6.908;2023-05-07T11:44:08;2.10;;;1.70;;
23684;SDS011;12020;51.384;6.908;2023-05-07T11:46:36;1.70;;;1.60;;
23684;SDS011;12020;51.384;6.908;2023-05-07T11:49:02;2.30;;;1.80;;
23684;SDS011;12020;51.384;6.908;2023-05-07T11:54:16;2.10;;;1.90;;
23684;SDS011;12020;51.384;6.908;2023-05-07T11:56:42;2.63;;;2.43;;
23684;SDS011;12020;51.384;6.908;2023-05-07T11:59:09;3.90;;;2.27;;
23684;SDS011;12020;51.384;6.908;2023-05-07T12:01:43;2.30;;;2.10;;
23684;SDS011;12020;51.384;6.908;2023-05-07T12:04:23;4.47;;;2.33;;
23684;SDS011;12020;51.384;6.908;2023-05-07T12:06:56;3.40;;;2.47;;
23684;SDS011;12020;51.384;6.908;2023-05-07T12:09:24;2.50;;;1.93;;
23684;SDS011;12020;51.384;6.908;2023-05-07T12:11:53;2.03;;;1.83;;
23684;SDS011;12020;51.384;6.908;2023-05-07T12:17:11;4.93;;;1.97;;
23684;SDS011;12020;51.384;6.908;2023-05-07T12:19:41;1.70;;;1.60;;
23684;SDS011;12020;51.384;6.908;2023-05-07T12:22:10;3.03;;;2.00;;
23684;SDS011;12020;51.384;6.908;2023-05-07T12:40:37;4.40;;;2.80;;
23684;SDS011;12020;51.384;6.908;2023-05-07T12:46:12;4.03;;;3.00;;
23684;SDS011;12020;51.384;6.908;2023-05-07T12:51:19;9.73;;;4.87;;
23684;SDS011;12020;51.384;6.908;2023-05-07T12:53:58;13.13;;;5.73;;
23684;SDS011;12020;51.384;6.908;2023-05-07T12:56:25;17.53;;;6.87;;
23684;SDS011;12020;51.384;6.908;2023-05-07T12:58:56;16.83;;;5.90;;
23684;SDS011;12020;51.384;6.908;2023-05-07T13:01:28;15.60;;;6.40;;
23684;SDS011;12020;51.384;6.908;2023-05-07T13:03:57;12.37;;;6.33;;
23684;SDS011;12020;51.384;6.908;2023-05-07T13:06:26;10.77;;;5.97;;
23684;SDS011;12020;51.384;6.908;2023-05-07T13:08:53;14.93;;;6.47;;
23684;SDS011;12020;51.384;6.908;2023-05-07T13:29:41;13.30;;;7.27;;
23684;SDS011;12020;51.384;6.908;2023-05-07T13:32:07;10.27;;;5.63;;
23684;SDS011;12020;51.384;6.908;2023-05-07T13:34:33;11.87;;;6.30;;
23684;SDS011;12020;51.384;6.908;2023-05-07T13:37:01;13.97;;;6.43;;
23684;SDS011;12020;51.384;6.908;2023-05-07T13:39:28;10.80;;;5.77;;
23684;SDS011;12020;51.384;6.908;2023-05-07T13:42:06;9.10;;;5.90;;
23684;SDS011;12020;51.384;6.908;2023-05-07T13:44:38;7.70;;;5.67;;
23684;SDS011;12020;51.384;6.908;2023-05-07T13:47:13;8.40;;;6.27;;
23684;SDS011;12020;51.384;6.908;2023-05-07T13:49:51;7.17;;;5.90;;
23684;SDS011;12020;51.384;6.908;2023-05-07T13:52:17;10.03;;;6.43;;
23684;SDS011;12020;51.384;6.908;2023-05-07T13:55:00;9.27;;;6.03;;
23684;SDS011;12020;51.384;6.908;2023-05-07T13:57:37;6.80;;;5.87;;
23684;SDS011;12020;51.384;6.908;2023-05-07T14:00:18;9.37;;;6.90;;
23684;SDS011;12020;51.384;6.908;2023-05-07T14:02:49;9.43;;;6.87;;
23684;SDS011;12020;51.384;6.908;2023-05-07T14:08:14;7.60;;;6.80;;
23684;SDS011;12020;51.384;6.908;2023-05-07T14:10:42;8.00;;;6.50;;
23684;SDS011;12020;51.384;6.908;2023-05-07T15:01:19;11.73;;;10.50;;
23684;SDS011;12020;51.384;6.908;2023-05-07T15:03:46;8.77;;;6.95;;
23684;SDS011;12020;51.384;6.908;2023-05-07T17:11:36;5.20;;;4.70;;
23684;SDS011;12020;51.384;6.908;2023-05-07T17:14:02;5.07;;;4.60;;
23684;SDS011;12020;51.384;6.908;2023-05-07T17:16:28;6.00;;;5.40;;
23684;SDS011;12020;51.384;6.908;2023-05-07T17:18:53;6.53;;;5.90;;
23684;SDS011;12020;51.384;6.908;2023-05-07T17:21:20;7.23;;;6.53;;
23684;SDS011;12020;51.384;6.908;2023-05-07T17:23:45;7.67;;;6.97;;
23684;SDS011;12020;51.384;6.908;2023-05-07T17:26:11;8.32;;;7.43;;
23684;SDS011;12020;51.384;6.908;2023-05-07T17:28:39;7.47;;;6.80;;
23684;SDS011;12020;51.384;6.908;2023-05-07T17:31:06;7.82;;;7.03;;
23684;SDS011;12020;51.384;6.908;2023-05-07T17:33:32;7.78;;;7.07;;
23684;SDS011;12020;51.384;6.908;2023-05-07T17:35:58;7.80;;;7.10;;
23684;SDS011;12020;51.384;6.908;2023-05-07T17:38:27;7.72;;;7.13;;
23684;SDS011;12020;51.384;6.908;2023-05-07T17:40:59;7.85;;;7.13;;
23684;SDS011;12020;51.384;6.908;2023-05-07T17:43:25;7.93;;;7.22;;
23684;SDS011;12020;51.384;6.908;2023-05-07T17:45:51;7.97;;;7.27;;
23684;SDS011;12020;51.384;6.908;2023-05-07T17:48:18;7.03;;;6.25;;
23684;SDS011;12020;51.384;6.908;2023-05-07T17:50:45;6.25;;;5.70;;
23684;SDS011;12020;51.384;6.908;2023-05-07T17:53:11;5.63;;;5.13;;
23684;SDS011;12020;51.384;6.908;2023-05-07T17:55:43;5.63;;;5.07;;
23684;SDS011;12020;51.384;6.908;2023-05-07T17:58:10;5.80;;;5.30;;
23684;SDS011;12020;51.384;6.908;2023-05-07T18:00:37;5.63;;;5.13;;
23684;SDS011;12020;51.384;6.908;2023-05-07T18:03:03;6.00;;;5.40;;
23684;SDS011;12020;51.384;6.908;2023-05-07T18:05:30;7.10;;;6.13;;
23684;SDS011;12020;51.384;6.908;2023-05-07T18:07:57;7.50;;;6.73;;
23684;SDS011;12020;51.384;6.908;2023-05-07T18:10:22;7.83;;;6.57;;
23684;SDS011;12020;51.384;6.908;2023-05-07T18:12:49;6.30;;;5.70;;
23684;SDS011;12020;51.384;6.908;2023-05-07T18:15:15;7.73;;;6.00;;
23684;SDS011;12020;51.384;6.908;2023-05-07T18:17:41;6.50;;;5.90;;
23684;SDS011;12020;51.384;6.908;2023-05-07T18:20:07;6.03;;;5.53;;
23684;SDS011;12020;51.384;6.908;2023-05-07T18:22:35;6.57;;;5.77;;
23684;SDS011;12020;51.384;6.908;2023-05-07T18:25:02;6.10;;;5.50;;
23684;SDS011;12020;51.384;6.908;2023-05-07T18:27:29;6.50;;;5.77;;
23684;SDS011;12020;51.384;6.908;2023-05-07T18:29:55;5.87;;;5.23;;
23684;SDS011;12020;51.384;6.908;2023-05-07T18:32:21;5.13;;;4.63;;
23684;SDS011;12020;51.384;6.908;2023-05-07T18:34:47;6.53;;;4.67;;
23684;SDS011;12020;51.384;6.908;2023-05-07T18:37:14;5.53;;;4.40;;
23684;SDS011;12020;51.384;6.908;2023-05-07T18:39:41;5.40;;;4.90;;
23684;SDS011;12020;51.384;6.908;2023-05-07T18:42:10;5.10;;;4.60;;
23684;SDS011;12020;51.384;6.908;2023-05-07T18:44:37;4.97;;;4.30;;
23684;SDS011;12020;51.384;6.908;2023-05-07T18:47:07;4.97;;;4.57;;
23684;SDS011;12020;51.384;6.908;2023-05-07T18:49:33;4.80;;;4.40;;
23684;SDS011;12020;51.384;6.908;2023-05-07T18:51:59;4.50;;;4.10;;
23684;SDS011;12020;51.384;6.908;2023-05-07T18:54:26;4.40;;;4.00;;
23684;SDS011;12020;51.384;6.908;2023-05-07T18:56:53;4.77;;;4.30;;
23684;SDS011;12020;51.384;6.908;2023-05-07T18:59:20;7.80;;;4.70;;
23684;SDS011;12020;51.384;6.908;2023-05-07T19:01:46;4.97;;;4.57;;
23684;SDS011;12020;51.384;6.908;2023-05-07T19:04:12;5.77;;;5.30;;
23684;SDS011;12020;51.384;6.908;2023-05-07T19:06:37;5.70;;;5.13;;
23684;SDS011;12020;51.384;6.908;2023-05-07T19:09:04;5.23;;;4.67;;
23684;SDS011;12020;51.384;6.908;2023-05-07T19:11:29;5.83;;;5.23;;
23684;SDS011;12020;51.384;6.908;2023-05-07T19:13:55;5.37;;;4.77;;
23684;SDS011;12020;51.384;6.908;2023-05-07T19:16:23;5.73;;;5.13;;
23684;SDS011;12020;51.384;6.908;2023-05-07T19:18:48;6.00;;;5.45;;
23684;SDS011;12020;51.384;6.908;2023-05-07T19:21:16;6.18;;;5.68;;
23684;SDS011;12020;51.384;6.908;2023-05-07T19:23:41;6.43;;;5.82;;
23684;SDS011;12020;51.384;6.908;2023-05-07T19:26:08;6.20;;;5.70;;
23684;SDS011;12020;51.384;6.908;2023-05-07T19:28:36;5.70;;;5.30;;
23684;SDS011;12020;51.384;6.908;2023-05-07T19:31:03;5.95;;;5.05;;
23684;SDS011;12020;51.384;6.908;2023-05-07T19:33:32;6.60;;;5.10;;
23684;SDS011;12020;51.384;6.908;2023-05-07T19:35:58;5.40;;;4.90;;
23684;SDS011;12020;51.384;6.908;2023-05-07T19:38:27;5.47;;;4.97;;
23684;SDS011;12020;51.384;6.908;2023-05-07T19:41:10;6.35;;;5.75;;
23684;SDS011;12020;51.384;6.908;2023-05-07T19:43:37;6.63;;;5.97;;
23684;SDS011;12020;51.384;6.908;2023-05-07T19:46:04;6.80;;;6.10;;
23684;SDS011;12020;51.384;6.908;2023-05-07T19:48:31;6.97;;;6.38;;
23684;SDS011;12020;51.384;6.908;2023-05-07T19:50:57;6.20;;;5.60;;
23684;SDS011;12020;51.384;6.908;2023-05-07T19:53:24;6.13;;;5.57;;
23684;SDS011;12020;51.384;6.908;2023-05-07T19:55:58;6.73;;;5.70;;
23684;SDS011;12020;51.384;6.908;2023-05-07T19:58:27;6.63;;;6.03;;
23684;SDS011;12020;51.384;6.908;2023-05-07T20:00:53;6.47;;;5.90;;
23684;SDS011;12020;51.384;6.908;2023-05-07T20:03:19;7.43;;;6.63;;
23684;SDS011;12020;51.384;6.908;2023-05-07T20:05:45;7.00;;;6.28;;
23684;SDS011;12020;51.384;6.908;2023-05-07T20:08:11;7.70;;;6.85;;
23684;SDS011;12020;51.384;6.908;2023-05-07T20:10:37;7.60;;;6.90;;
23684;SDS011;12020;51.384;6.908;2023-05-07T20:13:03;7.80;;;7.03;;
23684;SDS011;12020;51.384;6.908;2023-05-07T20:15:28;7.40;;;6.80;;
23684;SDS011;12020;51.384;6.908;2023-05-07T20:17:55;8.02;;;7.22;;
23684;SDS011;12020;51.384;6.908;2023-05-07T20:20:21;7.88;;;7.15;;
23684;SDS011;12020;51.384;6.908;2023-05-07T20:22:47;8.93;;;7.73;;
23684;SDS011;12020;51.384;6.908;2023-05-07T20:25:13;8.67;;;7.97;;
23684;SDS011;12020;51.384;6.908;2023-05-07T20:27:39;8.40;;;7.70;;
23684;SDS011;12020;51.384;6.908;2023-05-07T20:30:06;8.20;;;7.40;;
23684;SDS011;12020;51.384;6.908;2023-05-07T20:32:32;8.05;;;7.35;;
23684;SDS011;12020;51.384;6.908;2023-05-07T20:37:39;8.10;;;7.40;;
23684;SDS011;12020;51.384;6.908;2023-05-07T20:40:18;8.20;;;7.47;;
23684;SDS011;12020;51.384;6.908;2023-05-07T20:48:37;8.88;;;8.07;;
23684;SDS011;12020;51.384;6.908;2023-05-07T20:51:19;8.18;;;7.45;;
23684;SDS011;12020;51.384;6.908;2023-05-07T20:53:51;8.35;;;7.60;;
23684;SDS011;12020;51.384;6.908;2023-05-07T20:56:18;8.55;;;7.75;;
23684;SDS011;12020;51.384;6.908;2023-05-07T21:01:38;8.55;;;7.72;;
23684;SDS011;12020;51.384;6.908;2023-05-07T21:04:14;8.10;;;7.50;;
23684;SDS011;12020;51.384;6.908;2023-05-07T21:06:40;8.85;;;8.15;;
23684;SDS011;12020;51.384;6.908;2023-05-07T21:12:01;9.23;;;8.33;;
23684;SDS011;12020;51.384;6.908;2023-05-07T21:14:30;9.02;;;8.23;;
23684;SDS011;12020;51.384;6.908;2023-05-07T21:16:58;8.57;;;7.78;;
23684;SDS011;12020;51.384;6.908;2023-05-07T21:19:32;8.95;;;8.15;;
23684;SDS011;12020;51.384;6.908;2023-05-07T21:22:05;9.02;;;8.27;;
23684;SDS011;12020;51.384;6.908;2023-05-07T21:24:36;9.70;;;8.70;;
23684;SDS011;12020;51.384;6.908;2023-05-07T21:27:08;8.87;;;7.97;;
23684;SDS011;12020;51.384;6.908;2023-05-07T21:29:35;9.63;;;8.82;;
23684;SDS011;12020;51.384;6.908;2023-05-07T21:32:07;9.87;;;8.90;;
23684;SDS011;12020;51.384;6.908;2023-05-07T21:34:34;9.68;;;8.88;;
23684;SDS011;12020;51.384;6.908;2023-05-07T21:37:04;10.05;;;9.05;;
23684;SDS011;12020;51.384;6.908;2023-05-07T21:39:30;9.23;;;8.43;;
23684;SDS011;12020;51.384;6.908;2023-05-07T21:42:03;9.80;;;8.13;;
23684;SDS011;12020;51.384;6.908;2023-05-07T21:44:30;9.25;;;8.30;;
23684;SDS011;12020;51.384;6.908;2023-05-07T21:47:03;9.88;;;9.07;;
23684;SDS011;12020;51.384;6.908;2023-05-07T21:52:19;9.73;;;8.90;;
23684;SDS011;12020;51.384;6.908;2023-05-07T21:54:50;9.88;;;8.98;;
23684;SDS011;12020;51.384;6.908;2023-05-07T22:00:00;9.15;;;8.32;;
23684;SDS011;12020;51.384;6.908;2023-05-07T22:02:36;9.77;;;8.98;;
23684;SDS011;12020;51.384;6.908;2023-05-07T22:07:40;10.10;;;9.30;;
23684;SDS011;12020;51.384;6.908;2023-05-07T22:10:10;10.25;;;9.25;;
23684;SDS011;12020;51.384;6.908;2023-05-07T22:15:09;9.40;;;8.60;;
23684;SDS011;12020;51.384;6.908;2023-05-07T22:20:07;9.52;;;8.73;;
23684;SDS011;12020;51.384;6.908;2023-05-07T22:25:21;10.20;;;9.38;;
23684;SDS011;12020;51.384;6.908;2023-05-07T22:28:04;9.82;;;8.93;;
23684;SDS011;12020;51.384;6.908;2023-05-07T22:30:31;9.77;;;8.80;;
23684;SDS011;12020;51.384;6.908;2023-05-07T22:35:38;10.93;;;9.93;;
23684;SDS011;12020;51.384;6.908;2023-05-07T22:38:05;10.98;;;10.07;;
23684;SDS011;12020;51.384;6.908;2023-05-07T22:40:35;10.37;;;9.43;;
23684;SDS011;12020;51.384;6.908;2023-05-07T22:43:04;10.57;;;9.68;;
23684;SDS011;12020;51.384;6.908;2023-05-07T22:45:32;11.73;;;10.73;;
23684;SDS011;12020;51.384;6.908;2023-05-07T22:48:11;11.35;;;10.45;;
23684;SDS011;12020;51.384;6.908;2023-05-07T22:50:45;11.18;;;10.10;;
23684;SDS011;12020;51.384;6.908;2023-05-07T22:53:13;12.13;;;10.93;;
23684;SDS011;12020;51.384;6.908;2023-05-07T22:58:11;12.50;;;11.40;;
23684;SDS011;12020;51.384;6.908;2023-05-07T23:00:51;13.13;;;11.77;;
23684;SDS011;12020;51.384;6.908;2023-05-07T23:03:17;11.65;;;10.68;;
23684;SDS011;12020;51.384;6.908;2023-05-07T23:05:44;11.43;;;10.33;;
23684;SDS011;12020;51.384;6.908;2023-05-07T23:08:12;11.13;;;10.07;;
23684;SDS011;12020;51.384;6.908;2023-05-07T23:10:49;12.15;;;11.05;;
23684;SDS011;12020;51.384;6.908;2023-05-07T23:13:31;12.05;;;10.95;;
23684;SDS011;12020;51.384;6.908;2023-05-07T23:15:59;11.25;;;10.25;;
23684;SDS011;12020;51.384;6.908;2023-05-07T23:18:37;11.90;;;10.80;;
23684;SDS011;12020;51.384;6.908;2023-05-07T23:21:03;11.60;;;10.52;;
23684;SDS011;12020;51.384;6.908;2023-05-07T23:23:36;10.90;;;9.80;;
23684;SDS011;12020;51.384;6.908;2023-05-07T23:26:15;12.13;;;11.03;;
23684;SDS011;12020;51.384;6.908;2023-05-07T23:28:42;12.02;;;10.93;;
23684;SDS011;12020;51.384;6.908;2023-05-07T23:31:12;11.05;;;10.10;;
23684;SDS011;12020;51.384;6.908;2023-05-07T23:33:40;10.90;;;10.00;;
23684;SDS011;12020;51.384;6.908;2023-05-07T23:36:09;12.07;;;10.98;;
23684;SDS011;12020;51.384;6.908;2023-05-07T23:38:40;11.68;;;10.65;;
23684;SDS011;12020;51.384;6.908;2023-05-07T23:41:22;10.93;;;9.95;;
23684;SDS011;12020;51.384;6.908;2023-05-07T23:43:50;11.77;;;10.70;;
23684;SDS011;12020;51.384;6.908;2023-05-07T23:46:28;11.93;;;10.93;;
23684;SDS011;12020;51.384;6.908;2023-05-07T23:48:55;12.02;;;10.82;;
23684;SDS011;12020;51.384;6.908;2023-05-07T23:51:31;10.63;;;9.63;;
23684;SDS011;12020;51.384;6.908;2023-05-07T23:54:00;13.18;;;12.00;;